Time;durP1;ratioP1;P1;durP2;ratioP2;P2;SDS_P1;SDS_P2;PMS_P1;PMS_P2;Temp;Humidity;BMP_temperature;BMP_pressure;BME280_temperature;BME280_humidity;BME280_pressure;Samples;Min_cycle;Max_cycle;Signal;HPM_P1;HPM_P2
2021/12/01 00:00:26;;;;;;;30.50;17.77;;;9.40;99.90;;;;;;5007878;28;20030;-83
2021/12/01 00:02:55;;;;;;;25.55;16.80;;;9.40;99.90;;;;;;5024419;28;20049;-81
2021/12/01 00:05:23;;;;;;;;;;;9.40;99.90;;;;;;5008337;28;20022;-80
2021/12/01 00:07:49;;;;;;;25.10;15.57;;;9.50;99.90;;;;;;5027581;28;19910;-80
2021/12/01 00:10:16;;;;;;;20.35;13.95;;;9.40;99.90;;;;;;5020263;28;20032;-80
2021/12/01 00:12:42;;;;;;;17.35;12.82;;;9.50;99.90;;;;;;4995416;28;20037;-84
2021/12/01 00:15:08;;;;;;;18.23;12.90;;;9.40;99.90;;;;;;4995366;28;20033;-80
2021/12/01 00:17:34;;;;;;;18.92;12.60;;;9.50;99.90;;;;;;4995387;28;20026;-80
2021/12/01 00:20:00;;;;;;;15.40;10.85;;;9.50;99.90;;;;;;5011814;28;20537;-81
2021/12/01 00:22:26;;;;;;;13.25;9.52;;;9.50;99.90;;;;;;4991411;28;20033;-80
2021/12/01 00:24:53;;;;;;;12.00;8.63;;;9.50;99.90;;;;;;5024120;28;20037;-82
2021/12/01 00:27:18;;;;;;;12.07;8.30;;;9.50;99.90;;;;;;4978332;28;20455;-81
2021/12/01 00:29:44;;;;;;;10.07;7.47;;;9.60;99.90;;;;;;4992002;28;20041;-81
2021/12/01 00:32:10;;;;;;;13.70;8.30;;;9.50;99.90;;;;;;4975606;28;20038;-80
2021/12/01 00:34:35;;;;;;;13.15;8.60;;;9.50;99.90;;;;;;4976019;28;20041;-81
2021/12/01 00:37:02;;;;;;;9.77;7.53;;;9.60;99.90;;;;;;4975538;28;20053;-80
2021/12/01 00:39:27;;;;;;;12.65;8.32;;;9.50;99.90;;;;;;4977445;28;20026;-81
2021/12/01 00:41:55;;;;;;;12.63;7.55;;;9.60;99.90;;;;;;5008852;28;20066;-81
2021/12/01 00:44:20;;;;;;;9.75;6.28;;;9.50;99.90;;;;;;4991787;28;20041;-82
2021/12/01 00:47:02;;;;;;;9.25;6.07;;;9.60;99.90;;;;;;4991298;28;20395;-82
2021/12/01 00:49:30;;;;;;;6.85;5.18;;;9.50;99.90;;;;;;4975366;28;20057;-83
2021/12/01 00:51:55;;;;;;;7.47;4.88;;;9.50;99.90;;;;;;5017497;28;20042;-80
2021/12/01 00:54:21;;;;;;;6.47;4.35;;;9.60;99.90;;;;;;5010954;28;20113;-80
2021/12/01 00:56:49;;;;;;;6.25;3.20;;;9.60;99.90;;;;;;5027107;28;20032;-80
2021/12/01 00:59:15;;;;;;;4.05;2.63;;;9.60;99.90;;;;;;5010580;28;20053;-80
2021/12/01 01:01:41;;;;;;;3.28;2.25;;;9.60;99.90;;;;;;5010798;28;20030;-80
2021/12/01 01:04:07;;;;;;;3.75;2.72;;;9.60;99.90;;;;;;5026929;28;20079;-79
2021/12/01 01:06:33;;;;;;;4.15;1.92;;;9.50;99.90;;;;;;5010468;28;20506;-80
2021/12/01 01:09:00;;;;;;;3.42;1.80;;;9.60;99.90;;;;;;5010480;28;20034;-81
2021/12/01 01:16:58;;;;;;;2.45;1.48;;;9.60;99.90;;;;;;5010414;28;20098;-82
2021/12/01 01:19:25;;;;;;;2.78;1.45;;;9.60;99.90;;;;;;4993561;28;20050;-83
2021/12/01 01:21:52;;;;;;;2.78;1.30;;;9.60;99.90;;;;;;5010570;28;20029;-83
2021/12/01 01:24:19;;;;;;;3.95;1.85;;;9.60;99.90;;;;;;4994124;28;20025;-82
2021/12/01 01:26:45;;;;;;;3.28;1.67;;;9.60;99.90;;;;;;4994000;28;20036;-81
2021/12/01 01:29:11;;;;;;;3.00;2.03;;;9.60;99.90;;;;;;5010208;28;20042;-81
2021/12/01 01:31:37;;;;;;;3.17;1.73;;;9.60;99.90;;;;;;4993949;28;20046;-81
2021/12/01 01:34:04;;;;;;;3.53;1.80;;;9.60;99.90;;;;;;5010152;28;20065;-82
2021/12/01 01:36:31;;;;;;;3.65;1.48;;;9.60;99.90;;;;;;4993804;28;20038;-82
2021/12/01 01:38:57;;;;;;;3.70;1.90;;;9.60;99.90;;;;;;4993795;28;20125;-80
2021/12/01 01:41:24;;;;;;;3.13;1.67;;;9.60;99.90;;;;;;4993410;28;20051;-80
2021/12/01 01:43:51;;;;;;;3.38;1.70;;;9.60;99.90;;;;;;4993926;28;20034;-81
2021/12/01 01:46:18;;;;;;;2.10;1.30;;;9.60;99.90;;;;;;5010171;28;20038;-81
2021/12/01 01:48:46;;;;;;;2.03;1.00;;;9.60;99.90;;;;;;4993533;28;20040;-80
2021/12/01 01:51:13;;;;;;;2.53;1.17;;;9.60;99.90;;;;;;4999162;28;20045;-80
2021/12/01 01:53:39;;;;;;;2.40;0.90;;;9.60;99.90;;;;;;5027598;28;20030;-80
2021/12/01 01:56:06;;;;;;;2.20;0.90;;;9.60;99.90;;;;;;5027562;28;20038;-81
2021/12/01 01:58:32;;;;;;;2.38;1.08;;;9.60;99.90;;;;;;5009736;28;20030;-81
2021/12/01 02:01:07;;;;;;;2.67;1.15;;;9.60;99.90;;;;;;5009792;28;20148;-81
2021/12/01 02:03:41;;;;;;;2.30;0.93;;;9.50;99.90;;;;;;5027238;28;20033;-81
2021/12/01 02:06:09;;;;;;;3.38;0.80;;;9.50;99.90;;;;;;5022065;28;20034;-82
2021/12/01 02:08:37;;;;;;;2.53;0.90;;;9.50;99.90;;;;;;5012817;28;20041;-81
2021/12/01 02:11:06;;;;;;;2.30;0.85;;;9.50;99.90;;;;;;4995491;28;20060;-80
2021/12/01 02:13:32;;;;;;;1.52;0.60;;;9.50;99.90;;;;;;5009641;28;20030;-82
2021/12/01 02:15:58;;;;;;;2.97;0.98;;;9.50;99.90;;;;;;4993266;28;20037;-82
2021/12/01 02:18:25;;;;;;;2.47;1.05;;;9.50;99.90;;;;;;4993227;28;20026;-80
2021/12/01 02:21:03;;;;;;;2.17;0.73;;;9.50;99.90;;;;;;5009488;28;20049;-82
2021/12/01 02:23:29;;;;;;;3.42;1.00;;;9.50;99.90;;;;;;4993270;28;20075;-81
2021/12/01 02:25:55;;;;;;;2.45;1.40;;;9.40;99.90;;;;;;5009127;28;20030;-82
2021/12/01 02:28:21;;;;;;;3.10;1.60;;;9.40;99.90;;;;;;5009525;28;20036;-82
2021/12/01 02:30:47;;;;;;;2.45;1.23;;;9.40;99.90;;;;;;5008299;28;20081;-81
2021/12/01 02:33:13;;;;;;;2.20;1.23;;;9.40;99.90;;;;;;5009252;28;20029;-79
2021/12/01 02:35:39;;;;;;;3.53;2.63;;;9.40;99.90;;;;;;5026656;28;20025;-82
2021/12/01 02:38:05;;;;;;;3.95;2.40;;;9.30;99.90;;;;;;5025747;28;20041;-81
2021/12/01 02:40:34;;;;;;;4.10;1.88;;;9.30;99.90;;;;;;5025454;28;20037;-82
2021/12/01 02:42:59;;;;;;;3.55;2.60;;;9.30;99.90;;;;;;5008816;28;20076;-82
2021/12/01 02:45:25;;;;;;;2.60;1.73;;;9.30;99.90;;;;;;4992758;28;20034;-81
2021/12/01 02:47:51;;;;;;;3.53;2.05;;;9.30;99.90;;;;;;4992660;28;20030;-82
2021/12/01 02:50:17;;;;;;;4.18;2.40;;;9.30;99.90;;;;;;5008656;28;20117;-82
2021/12/01 02:52:43;;;;;;;3.80;2.65;;;9.20;99.90;;;;;;5009000;28;20438;-82
2021/12/01 02:55:11;;;;;;;3.40;2.45;;;9.20;99.90;;;;;;5008588;28;20034;-81
2021/12/01 02:57:55;;;;;;;4.35;2.47;;;9.20;99.90;;;;;;5008781;28;20395;-82
2021/12/01 03:00:23;;;;;;;3.55;2.25;;;9.20;99.90;;;;;;5025184;28;20109;-83
2021/12/01 03:02:51;;;;;;;4.40;2.50;;;9.20;99.90;;;;;;5008940;28;20033;-83
2021/12/01 03:05:18;;;;;;;4.15;2.83;;;9.10;99.90;;;;;;5008527;28;20040;-84
2021/12/01 03:07:45;;;;;;;3.33;2.53;;;9.10;99.90;;;;;;5008504;28;20030;-85
2021/12/01 03:10:12;;;;;;;3.33;2.30;;;9.10;99.90;;;;;;5017693;28;20041;-84
2021/12/01 03:12:39;;;;;;;3.15;2.15;;;9.10;99.90;;;;;;4992266;28;20049;-83
2021/12/01 03:15:08;;;;;;;2.70;1.63;;;9.10;99.90;;;;;;4992325;28;20030;-82
2021/12/01 03:17:34;;;;;;;8.30;2.88;;;9.00;99.90;;;;;;4992352;28;20128;-82
2021/12/01 03:20:00;;;;;;;3.25;1.70;;;9.10;99.90;;;;;;5008416;28;20028;-82
2021/12/01 03:22:26;;;;;;;2.55;1.50;;;9.10;99.90;;;;;;4992172;28;20097;-82
2021/12/01 03:24:53;;;;;;;3.60;1.42;;;9.00;99.90;;;;;;4991869;28;20029;-81
2021/12/01 03:27:20;;;;;;;1.77;0.95;;;9.00;99.90;;;;;;4991941;28;20040;-83
2021/12/01 03:29:46;;;;;;;2.85;0.85;;;9.00;99.90;;;;;;5008479;28;20026;-82
2021/12/01 03:32:13;;;;;;;1.83;0.90;;;9.00;99.90;;;;;;5008130;28;20521;-82
2021/12/01 03:34:40;;;;;;;2.22;0.70;;;9.00;99.90;;;;;;4991954;28;20034;-83
2021/12/01 03:37:06;;;;;;;3.40;0.80;;;9.00;99.90;;;;;;4991984;28;20034;-84
2021/12/01 03:39:32;;;;;;;1.65;0.90;;;9.00;99.90;;;;;;4991803;28;20097;-83
2021/12/01 03:41:58;;;;;;;2.38;0.73;;;9.00;99.90;;;;;;4991385;28;20053;-83
2021/12/01 03:44:24;;;;;;;1.65;0.80;;;8.90;99.90;;;;;;4991941;28;20034;-84
2021/12/01 03:46:50;;;;;;;2.33;0.70;;;9.00;99.90;;;;;;5007981;28;20060;-82
2021/12/01 03:49:15;;;;;;;1.48;0.60;;;8.90;99.90;;;;;;5008051;28;20084;-83
2021/12/01 03:51:41;;;;;;;2.95;0.82;;;8.90;99.90;;;;;;5000949;28;20046;-82
2021/12/01 03:54:07;;;;;;;2.83;0.93;;;8.90;99.90;;;;;;5007975;28;20029;-82
2021/12/01 03:56:33;;;;;;;4.78;0.75;;;8.90;99.90;;;;;;5024257;28;20030;-83
2021/12/01 03:59:00;;;;;;;3.33;1.13;;;8.90;99.90;;;;;;5024312;28;20105;-85
2021/12/01 04:01:26;;;;;;;2.03;0.80;;;8.90;99.90;;;;;;5025569;28;20034;-82
2021/12/01 04:03:51;;;;;;;2.40;0.90;;;8.90;99.90;;;;;;5007951;28;20041;-82
2021/12/01 04:06:17;;;;;;;2.38;0.70;;;8.90;99.90;;;;;;5007593;28;20041;-82
2021/12/01 04:08:43;;;;;;;2.75;1.15;;;8.90;99.90;;;;;;5007867;28;20030;-84
2021/12/01 04:11:09;;;;;;;3.25;1.48;;;8.80;99.90;;;;;;4992746;28;20057;-83
2021/12/01 04:13:34;;;;;;;3.67;1.38;;;8.80;99.90;;;;;;4991688;28;20040;-81
2021/12/01 04:16:00;;;;;;;2.67;1.40;;;8.80;99.90;;;;;;4991478;28;20044;-83
2021/12/01 04:18:26;;;;;;;2.20;0.88;;;8.80;99.90;;;;;;4991897;28;20030;-83
2021/12/01 04:20:52;;;;;;;2.72;1.08;;;8.80;99.90;;;;;;4991512;28;20040;-82
2021/12/01 04:23:17;;;;;;;2.85;1.17;;;8.70;99.90;;;;;;4991698;28;20034;-83
2021/12/01 04:25:43;;;;;;;1.98;1.00;;;8.80;99.90;;;;;;4991342;28;20052;-82
2021/12/01 04:28:09;;;;;;;2.13;1.15;;;8.70;99.90;;;;;;4991794;28;20044;-82
2021/12/01 04:30:34;;;;;;;2.25;1.00;;;8.80;99.90;;;;;;4991391;28;20034;-82
2021/12/01 04:33:00;;;;;;;2.22;1.10;;;8.80;99.90;;;;;;5007682;28;20045;-83
2021/12/01 04:35:27;;;;;;;2.17;1.00;;;8.80;99.90;;;;;;4991494;28;20029;-83
2021/12/01 04:37:54;;;;;;;2.20;0.82;;;8.70;99.90;;;;;;4991374;28;20041;-82
2021/12/01 04:40:43;;;;;;;3.15;1.20;;;8.70;99.90;;;;;;5007905;28;20347;-82
2021/12/01 04:43:08;;;;;;;3.28;1.10;;;8.70;99.90;;;;;;4894703;29;20072;-81
2021/12/01 04:45:36;;;;;;;2.92;1.42;;;8.70;99.90;;;;;;4910483;29;20044;-83
2021/12/01 04:48:02;;;;;;;3.00;1.50;;;8.70;99.90;;;;;;4926181;29;20055;-82
2021/12/01 04:50:28;;;;;;;2.75;2.00;;;8.70;99.90;;;;;;4929081;29;20043;-82
2021/12/01 04:52:57;;;;;;;2.97;1.73;;;8.70;99.90;;;;;;4929326;29;20080;-83
2021/12/01 04:55:24;;;;;;;4.20;1.93;;;8.70;99.90;;;;;;4947792;29;20048;-82
2021/12/01 04:57:50;;;;;;;2.95;1.70;;;8.60;99.90;;;;;;4948748;29;20035;-82
2021/12/01 05:00:21;;;;;;;3.30;2.15;;;8.60;99.90;;;;;;4948806;29;20040;-82
2021/12/01 05:02:47;;;;;;;2.97;1.67;;;8.60;99.90;;;;;;4948650;29;20460;-84
2021/12/01 05:05:13;;;;;;;2.20;1.70;;;8.60;99.90;;;;;;4948733;29;20036;-81
2021/12/01 05:07:38;;;;;;;3.38;2.22;;;8.60;99.90;;;;;;4948257;29;20047;-81
2021/12/01 05:10:06;;;;;;;3.40;2.80;;;8.60;99.90;;;;;;4923309;29;20043;-83
2021/12/01 05:12:34;;;;;;;3.65;2.38;;;8.60;99.90;;;;;;4913528;29;20068;-83
2021/12/01 05:14:59;;;;;;;3.92;2.63;;;8.50;99.90;;;;;;4897968;29;20488;-83
2021/12/01 05:17:25;;;;;;;2.40;2.10;;;8.50;99.90;;;;;;4897958;29;20025;-84
2021/12/01 05:19:51;;;;;;;2.45;1.77;;;8.40;99.90;;;;;;4944207;28;20042;-82
2021/12/01 05:22:17;;;;;;;3.50;1.73;;;8.40;99.90;;;;;;4974758;28;20064;-84
2021/12/01 05:24:42;;;;;;;2.50;1.70;;;8.40;99.90;;;;;;4974934;28;20109;-84
2021/12/01 05:27:08;;;;;;;2.45;1.58;;;8.30;99.90;;;;;;4991276;28;20542;-84
2021/12/01 05:29:34;;;;;;;2.17;1.35;;;8.30;99.90;;;;;;4974885;28;20034;-83
2021/12/01 05:32:00;;;;;;;3.75;1.85;;;8.30;99.90;;;;;;4990826;28;20402;-82
2021/12/01 05:34:26;;;;;;;2.65;1.88;;;8.20;99.90;;;;;;4975037;28;20049;-84
2021/12/01 05:36:53;;;;;;;2.42;1.27;;;8.20;99.90;;;;;;4974871;28;20042;-84
2021/12/01 05:39:19;;;;;;;2.35;1.63;;;8.20;99.90;;;;;;4974945;28;20027;-85
2021/12/01 05:41:44;;;;;;;1.90;1.25;;;8.20;99.90;;;;;;4974336;28;20070;-83
2021/12/01 05:44:11;;;;;;;2.10;1.20;;;8.20;99.90;;;;;;4990640;28;20053;-83
2021/12/01 05:46:37;;;;;;;2.72;1.52;;;8.20;99.90;;;;;;4974582;28;20053;-82
2021/12/01 05:49:04;;;;;;;4.15;1.35;;;8.20;99.90;;;;;;4974328;28;20030;-82
2021/12/01 05:51:29;;;;;;;2.10;1.20;;;8.10;99.90;;;;;;4990313;28;20077;-81
2021/12/01 05:53:55;;;;;;;3.35;1.30;;;8.10;99.90;;;;;;4990349;28;20019;-83
2021/12/01 05:56:21;;;;;;;2.15;0.98;;;8.10;99.90;;;;;;4974580;28;20065;-83
2021/12/01 05:58:46;;;;;;;2.78;1.10;;;8.20;99.90;;;;;;4990322;28;20034;-83
2021/12/01 06:01:12;;;;;;;4.95;1.17;;;8.20;99.90;;;;;;4974360;28;20089;-82
2021/12/01 06:03:39;;;;;;;3.72;1.27;;;8.10;99.90;;;;;;4974117;28;20022;-84
2021/12/01 06:06:05;;;;;;;1.80;0.90;;;8.10;99.90;;;;;;4973834;28;20034;-82
2021/12/01 06:08:30;;;;;;;2.53;1.00;;;8.10;99.90;;;;;;4989832;28;20121;-81
2021/12/01 06:10:56;;;;;;;2.30;1.05;;;8.10;99.90;;;;;;4989866;28;20065;-82
2021/12/01 06:13:24;;;;;;;1.77;1.00;;;8.10;99.90;;;;;;4993323;28;20088;-82
2021/12/01 06:15:50;;;;;;;2.50;0.98;;;8.10;99.90;;;;;;4990130;28;20033;-80
2021/12/01 06:18:16;;;;;;;3.92;0.73;;;8.00;99.90;;;;;;4995114;28;20029;-80
2021/12/01 06:20:42;;;;;;;1.63;0.80;;;8.00;99.90;;;;;;4994562;28;20030;-81
2021/12/01 06:23:08;;;;;;;1.92;0.80;;;8.00;99.90;;;;;;4994306;28;20034;-82
2021/12/01 06:25:35;;;;;;;2.20;1.10;;;8.00;99.90;;;;;;4992950;28;20030;-82
2021/12/01 06:28:00;;;;;;;1.52;0.70;;;8.00;99.90;;;;;;5008682;28;20458;-83
2021/12/01 06:30:31;;;;;;;1.58;0.63;;;8.00;99.90;;;;;;4989932;28;20034;-81
2021/12/01 06:32:57;;;;;;;2.70;0.70;;;8.00;99.90;;;;;;5008885;28;20073;-82
2021/12/01 06:35:23;;;;;;;1.58;0.55;;;8.00;99.90;;;;;;5008853;28;20068;-80
2021/12/01 06:37:50;;;;;;;1.33;0.60;;;8.00;99.90;;;;;;5008547;28;20068;-81
2021/12/01 06:40:36;;;;;;;1.25;0.50;;;8.00;99.90;;;;;;4992192;28;20030;-80
2021/12/01 06:43:02;;;;;;;1.38;0.55;;;8.00;99.90;;;;;;4892358;29;20060;-79
2021/12/01 06:45:29;;;;;;;1.40;0.57;;;8.00;99.90;;;;;;4927796;29;20043;-80
2021/12/01 06:47:55;;;;;;;1.55;0.60;;;7.90;99.90;;;;;;4927478;29;20417;-80
2021/12/01 06:50:21;;;;;;;1.98;0.70;;;8.00;99.90;;;;;;4929050;29;20119;-80
2021/12/01 06:52:47;;;;;;;2.13;0.70;;;7.90;99.90;;;;;;4946413;29;20683;-80
2021/12/01 06:55:13;;;;;;;1.42;0.60;;;7.90;99.90;;;;;;4946083;29;20046;-81
2021/12/01 06:57:38;;;;;;;1.15;0.50;;;7.90;99.90;;;;;;4946046;29;20039;-80
2021/12/01 07:00:12;;;;;;;2.20;0.60;;;7.90;99.90;;;;;;4945953;29;20146;-81
2021/12/01 07:02:38;;;;;;;1.23;0.50;;;7.90;99.90;;;;;;4920214;29;20056;-81
2021/12/01 07:05:05;;;;;;;1.40;0.60;;;7.90;99.90;;;;;;4905978;29;20070;-81
2021/12/01 07:07:31;;;;;;;1.95;0.63;;;8.00;99.90;;;;;;4930428;29;20429;-80
2021/12/01 07:09:56;;;;;;;1.20;0.57;;;8.00;99.90;;;;;;4937443;29;20020;-81
2021/12/01 07:12:23;;;;;;;1.17;0.60;;;8.00;99.90;;;;;;4911336;29;20486;-82
2021/12/01 07:14:49;;;;;;;1.92;0.65;;;8.00;99.90;;;;;;4911293;29;20067;-81
2021/12/01 07:17:14;;;;;;;1.75;0.50;;;8.00;99.90;;;;;;4911109;29;20084;-82
2021/12/01 07:19:40;;;;;;;1.30;0.70;;;8.00;99.90;;;;;;4920671;28;20042;-82
2021/12/01 07:22:05;;;;;;;1.20;0.70;;;8.00;99.90;;;;;;4972587;28;20182;-81
2021/12/01 07:24:31;;;;;;;2.10;0.68;;;8.00;99.90;;;;;;4972637;28;20085;-81
2021/12/01 07:26:57;;;;;;;2.15;0.50;;;8.00;99.90;;;;;;4972780;28;20040;-82
2021/12/01 07:29:22;;;;;;;1.45;0.50;;;8.00;99.90;;;;;;4972638;28;20118;-81
2021/12/01 07:31:48;;;;;;;2.03;0.60;;;8.00;99.90;;;;;;4972788;28;20467;-79
2021/12/01 07:34:14;;;;;;;1.25;0.55;;;8.10;99.90;;;;;;4972673;28;20514;-79
2021/12/01 07:36:40;;;;;;;0.93;0.45;;;8.10;99.90;;;;;;5006063;28;20518;-82
2021/12/01 07:39:06;;;;;;;1.20;0.50;;;8.10;99.90;;;;;;4988839;28;20086;-82
2021/12/01 07:41:31;;;;;;;0.80;0.40;;;8.10;99.90;;;;;;4972215;28;20333;-80
2021/12/01 07:43:57;;;;;;;1.58;0.50;;;8.10;99.90;;;;;;4972616;28;20046;-80
2021/12/01 07:46:23;;;;;;;1.33;0.50;;;8.10;99.90;;;;;;4988867;28;20034;-79
2021/12/01 07:48:49;;;;;;;0.90;0.50;;;8.20;99.90;;;;;;5005998;28;20034;-79
2021/12/01 07:51:15;;;;;;;1.83;0.70;;;8.20;99.90;;;;;;4987197;28;20042;-80
2021/12/01 07:53:41;;;;;;;1.83;0.60;;;8.20;99.90;;;;;;5008004;28;20040;-80
2021/12/01 07:56:07;;;;;;;1.20;0.57;;;8.20;99.90;;;;;;5008004;28;20087;-79
2021/12/01 07:58:33;;;;;;;2.05;0.70;;;8.20;99.90;;;;;;5004015;28;20027;-79
2021/12/01 08:00:59;;;;;;;2.28;0.80;;;8.20;99.90;;;;;;4988418;28;20042;-80
2021/12/01 08:03:24;;;;;;;1.83;0.55;;;8.20;99.90;;;;;;4988663;28;20041;-79
2021/12/01 08:05:50;;;;;;;1.70;0.70;;;8.20;99.90;;;;;;4972271;28;20038;-79
2021/12/01 08:08:16;;;;;;;1.60;0.63;;;8.20;99.90;;;;;;4988567;28;20030;-80
2021/12/01 08:10:42;;;;;;;1.50;0.60;;;8.30;99.90;;;;;;4985997;28;20149;-78
2021/12/01 08:13:09;;;;;;;2.00;1.00;;;8.30;99.90;;;;;;5025564;28;20030;-78
2021/12/01 08:15:36;;;;;;;1.90;0.80;;;8.40;99.90;;;;;;4991708;28;20022;-79
2021/12/01 08:18:01;;;;;;;2.30;0.70;;;8.40;99.90;;;;;;5008080;28;20030;-78
2021/12/01 08:20:27;;;;;;;1.73;0.60;;;8.40;99.90;;;;;;5009234;28;20060;-78
2021/12/01 08:22:54;;;;;;;2.00;0.80;;;8.50;99.90;;;;;;5007525;28;20038;-78
2021/12/01 08:25:21;;;;;;;3.47;0.82;;;8.50;99.90;;;;;;4991067;28;20180;-79
2021/12/01 08:27:46;;;;;;;2.85;0.60;;;8.50;99.90;;;;;;4991282;28;20081;-79
2021/12/01 08:30:12;;;;;;;1.83;0.88;;;8.50;99.90;;;;;;4993385;28;20038;-79
2021/12/01 08:32:38;;;;;;;2.42;0.85;;;8.50;99.90;;;;;;4994670;28;20109;-78
2021/12/01 08:35:04;;;;;;;2.33;1.20;;;8.60;99.90;;;;;;5010955;28;20441;-79
2021/12/01 08:37:30;;;;;;;1.88;1.13;;;8.50;99.90;;;;;;5010708;28;20033;-79
2021/12/01 08:39:55;;;;;;;2.70;1.40;;;8.60;99.90;;;;;;4994361;28;20045;-80
2021/12/01 08:42:23;;;;;;;2.72;1.17;;;8.60;99.90;;;;;;4994112;28;20045;-78
2021/12/01 08:44:50;;;;;;;2.35;1.45;;;8.60;99.90;;;;;;5010422;28;20030;-80
2021/12/01 08:47:20;;;;;;;2.55;1.30;;;8.60;99.90;;;;;;5010422;28;20073;-79
2021/12/01 08:49:46;;;;;;;3.15;1.60;;;8.70;99.90;;;;;;4994226;28;20475;-80
2021/12/01 08:52:12;;;;;;;2.97;1.25;;;8.70;99.90;;;;;;5023955;28;20049;-80
2021/12/01 08:54:38;;;;;;;3.53;1.38;;;8.80;99.90;;;;;;5026669;28;20030;-80
2021/12/01 08:57:05;;;;;;;4.53;1.35;;;8.80;99.90;;;;;;5026683;28;20036;-80
2021/12/01 08:59:31;;;;;;;3.90;1.77;;;8.80;99.90;;;;;;5026621;28;20034;-80
2021/12/01 09:01:57;;;;;;;3.58;2.10;;;8.80;99.90;;;;;;5010111;28;20064;-80
2021/12/01 09:04:23;;;;;;;3.08;1.50;;;8.80;99.90;;;;;;5026531;28;20058;-78
2021/12/01 09:06:49;;;;;;;3.03;1.45;;;8.90;99.90;;;;;;5009976;28;20037;-79
2021/12/01 09:09:20;;;;;;;3.40;1.70;;;8.90;99.90;;;;;;5009916;28;20034;-79
2021/12/01 09:11:53;;;;;;;4.32;1.98;;;9.00;99.90;;;;;;5009650;28;20049;-80
2021/12/01 09:14:20;;;;;;;4.57;2.10;;;9.00;99.90;;;;;;4993725;28;20058;-81
2021/12/01 09:16:47;;;;;;;3.15;1.45;;;9.00;99.90;;;;;;4993563;28;20042;-80
2021/12/01 09:19:13;;;;;;;3.30;1.35;;;9.00;99.90;;;;;;4993638;28;20052;-80
2021/12/01 09:21:39;;;;;;;2.13;0.88;;;9.00;99.90;;;;;;5027160;28;20052;-80
2021/12/01 09:24:05;;;;;;;3.92;1.45;;;9.00;99.90;;;;;;5009829;28;20129;-80
2021/12/01 09:26:32;;;;;;;3.08;1.40;;;9.00;99.90;;;;;;4993472;28;20034;-80
2021/12/01 09:28:57;;;;;;;2.90;1.40;;;9.00;99.90;;;;;;4993216;28;20030;-80
2021/12/01 09:31:23;;;;;;;3.30;2.00;;;9.00;99.90;;;;;;5009779;28;20112;-81
2021/12/01 09:33:49;;;;;;;3.17;2.20;;;8.90;99.90;;;;;;5010253;28;20033;-80
2021/12/01 09:36:15;;;;;;;3.75;2.38;;;8.90;99.90;;;;;;4993983;28;20109;-79
2021/12/01 09:38:41;;;;;;;5.75;3.03;;;9.00;99.90;;;;;;4994002;28;20037;-79
2021/12/01 09:41:08;;;;;;;5.90;3.40;;;8.90;99.90;;;;;;5012632;23;20022;-78
2021/12/01 09:43:33;;;;;;;5.03;2.20;;;8.90;99.90;;;;;;4989565;28;20080;-80
2021/12/01 09:46:04;;;;;;;5.72;2.65;;;8.80;99.90;;;;;;4993379;28;20100;-78
2021/12/01 09:48:32;;;;;;;6.32;1.70;;;8.90;99.90;;;;;;5009697;28;20037;-77
2021/12/01 09:50:58;;;;;;;3.08;1.30;;;8.80;99.90;;;;;;4993245;28;20065;-78
2021/12/01 09:53:28;;;;;;;7.35;0.90;;;8.70;99.90;;;;;;5009682;28;20041;-78
2021/12/01 09:55:53;;;;;;;8.15;0.70;;;8.70;99.90;;;;;;5009530;28;20034;-79
2021/12/01 09:58:23;;;;;;;6.60;0.60;;;8.70;99.90;;;;;;4993154;28;20085;-79
2021/12/01 10:00:55;;;;;;;5.18;0.57;;;8.70;99.90;;;;;;5009411;28;20033;-78
2021/12/01 10:03:22;;;;;;;6.32;1.23;;;8.70;99.90;;;;;;4993245;28;20104;-79
2021/12/01 10:06:07;;;;;;;5.45;0.50;;;8.70;99.90;;;;;;5009428;28;20045;-80
2021/12/01 10:08:35;;;;;;;3.00;0.40;;;8.60;99.90;;;;;;5009490;28;20034;-80
2021/12/01 10:11:22;;;;;;;3.17;0.40;;;8.60;99.90;;;;;;4992611;28;20091;-81
2021/12/01 10:14:03;;;;;;;6.65;0.40;;;8.50;99.90;;;;;;5009206;28;20049;-81
2021/12/01 10:16:32;;;;;;;6.88;0.40;;;8.50;99.90;;;;;;4992716;28;20045;-81
2021/12/01 10:19:01;;;;;;;5.95;0.40;;;8.40;99.90;;;;;;4992659;28;20033;-80
2021/12/01 10:21:34;;;;;;;7.43;0.40;;;8.50;99.90;;;;;;5008784;28;20052;-80
2021/12/01 10:24:08;;;;;;;7.88;0.40;;;8.50;99.90;;;;;;5008841;28;20061;-80
2021/12/01 10:26:44;;;;;;;3.45;0.35;;;8.50;99.90;;;;;;4991984;28;20176;-81
2021/12/01 10:29:19;;;;;;;3.80;0.40;;;8.50;99.90;;;;;;5008436;28;20030;-80
2021/12/01 10:31:54;;;;;;;6.32;0.30;;;8.60;99.90;;;;;;5008603;28;20033;-80
2021/12/01 10:34:26;;;;;;;9.77;0.40;;;8.50;99.90;;;;;;4992329;28;20030;-80
2021/12/01 10:37:12;;;;;;;7.53;0.40;;;8.70;99.90;;;;;;4992228;28;20068;-80
2021/12/01 10:39:40;;;;;;;7.30;0.43;;;8.80;99.90;;;;;;4991993;28;20034;-80
2021/12/01 10:42:16;;;;;;;6.20;0.30;;;8.90;99.90;;;;;;4991766;28;20080;-80
2021/12/01 10:44:58;;;;;;;6.97;0.30;;;8.80;99.90;;;;;;4991870;28;20034;-81
2021/12/01 10:47:24;;;;;;;4.63;0.55;;;8.70;99.90;;;;;;5025954;28;20037;-82
2021/12/01 10:49:50;;;;;;;5.15;0.30;;;8.70;99.90;;;;;;5008387;28;20025;-81
2021/12/01 10:52:37;;;;;;;4.00;0.38;;;8.70;99.90;;;;;;4987646;28;20140;-81
2021/12/01 10:55:11;;;;;;;3.67;0.40;;;8.60;99.90;;;;;;4972634;28;20076;-81
2021/12/01 10:57:40;;;;;;;3.33;0.20;;;8.60;99.90;;;;;;4972439;28;20038;-81
2021/12/01 11:00:13;;;;;;;8.15;0.50;;;8.60;99.90;;;;;;4988349;28;20031;-81
2021/12/01 11:02:39;;;;;;;5.50;0.30;;;8.60;99.90;;;;;;4972376;28;20030;-81
2021/12/01 11:05:05;;;;;;;5.00;0.28;;;8.50;99.90;;;;;;4972198;28;20038;-80
2021/12/01 11:07:33;;;;;;;6.43;0.15;;;8.40;99.90;;;;;;4972248;28;20034;-80
2021/12/01 11:10:12;;;;;;;3.58;0.20;;;8.30;99.90;;;;;;4996774;28;20359;-81
2021/12/01 11:12:38;;;;;;;2.88;0.10;;;8.20;99.90;;;;;;4991540;28;20045;-80
2021/12/01 11:15:29;;;;;;;6.25;0.20;;;8.20;99.90;;;;;;5025450;28;20022;-80
2021/12/01 11:17:56;;;;;;;5.70;0.20;;;8.10;99.90;;;;;;4991583;28;20037;-80
2021/12/01 11:20:41;;;;;;;4.90;0.40;;;8.10;99.90;;;;;;4991597;28;20038;-79
2021/12/01 11:23:15;;;;;;;3.42;0.30;;;8.20;99.90;;;;;;4991354;28;20029;-79
2021/12/01 11:25:43;;;;;;;3.55;0.60;;;8.20;99.90;;;;;;5007503;28;20117;-79
2021/12/01 11:28:13;;;;;;;3.38;0.28;;;8.50;99.90;;;;;;4991416;28;20129;-80
2021/12/01 11:30:41;;;;;;;4.28;0.38;;;8.60;99.90;;;;;;5008808;28;20060;-80
2021/12/01 11:33:07;;;;;;;3.10;0.20;;;8.70;99.90;;;;;;4991098;28;20486;-80
2021/12/01 11:35:33;;;;;;;6.45;0.20;;;8.80;99.90;;;;;;5007543;28;20096;-79
2021/12/01 11:37:58;;;;;;;6.55;0.63;;;8.70;99.90;;;;;;4991266;28;20410;-80
2021/12/01 11:40:29;;;;;;;3.95;0.30;;;8.70;99.90;;;;;;5007341;28;20049;-81
2021/12/01 11:42:56;;;;;;;2.17;0.20;;;8.60;99.90;;;;;;5007156;28;20054;-81
2021/12/01 11:45:22;;;;;;;5.82;0.40;;;8.60;99.90;;;;;;5007196;28;20049;-81
2021/12/01 11:47:48;;;;;;;0.82;0.20;;;8.50;99.90;;;;;;4991242;28;20053;-81
2021/12/01 11:50:26;;;;;;;4.43;0.30;;;8.50;99.90;;;;;;4990985;28;20076;-81
2021/12/01 11:53:34;;;;;;;4.95;0.20;;;8.50;99.90;;;;;;4991165;28;20033;-81
2021/12/01 11:56:05;;;;;;;9.40;0.50;;;8.40;99.90;;;;;;4991034;28;20034;-81
2021/12/01 11:58:51;;;;;;;3.33;0.30;;;8.50;99.90;;;;;;4990971;28;20037;-80
2021/12/01 12:01:20;;;;;;;5.90;0.22;;;8.40;99.90;;;;;;4990866;28;20037;-82
2021/12/01 12:03:46;;;;;;;2.50;0.22;;;8.50;99.90;;;;;;4992931;28;20026;-80
2021/12/01 12:06:19;;;;;;;3.08;0.20;;;8.60;99.90;;;;;;5011351;28;20465;-80
2021/12/01 12:08:58;;;;;;;4.07;0.55;;;8.60;99.90;;;;;;4994872;28;20101;-80
2021/12/01 12:11:40;;;;;;;4.55;0.50;;;8.60;99.90;;;;;;4991640;28;20034;-81
2021/12/01 12:14:12;;;;;;;3.00;0.40;;;8.50;99.90;;;;;;4975333;28;20085;-81
2021/12/01 12:16:39;;;;;;;10.73;0.30;;;8.40;99.90;;;;;;4975465;28;20454;-80
2021/12/01 12:19:05;;;;;;;4.65;0.30;;;8.40;99.90;;;;;;4975652;28;20104;-81
2021/12/01 12:21:50;;;;;;;3.50;0.30;;;8.30;99.90;;;;;;4991705;28;20037;-80
2021/12/01 12:24:20;;;;;;;5.78;0.30;;;8.30;99.90;;;;;;5008935;28;20054;-80
2021/12/01 12:26:49;;;;;;;6.43;0.37;;;8.40;99.90;;;;;;4975270;28;20054;-80
2021/12/01 12:29:21;;;;;;;4.50;0.50;;;8.40;99.90;;;;;;4975153;28;20545;-81
2021/12/01 12:31:50;;;;;;;10.43;0.40;;;8.40;99.90;;;;;;4974864;28;20042;-81
2021/12/01 12:34:21;;;;;;;6.82;0.32;;;8.40;99.90;;;;;;4991142;28;20094;-79
2021/12/01 12:36:50;;;;;;;7.28;0.40;;;8.50;99.90;;;;;;4991219;28;20045;-80
2021/12/01 12:39:28;;;;;;;8.48;0.73;;;8.60;99.90;;;;;;4991205;28;20026;-80
2021/12/01 12:42:08;;;;;;;5.00;0.52;;;8.60;99.90;;;;;;4974647;28;20050;-81
2021/12/01 12:44:36;;;;;;;3.13;0.30;;;8.50;99.90;;;;;;4974819;28;20120;-80
2021/12/01 12:47:05;;;;;;;4.13;0.40;;;8.60;99.90;;;;;;4991065;28;20327;-80
2021/12/01 12:49:39;;;;;;;6.07;0.30;;;8.60;99.90;;;;;;4974721;28;20058;-82
2021/12/01 12:52:24;;;;;;;5.75;0.30;;;8.60;99.90;;;;;;4990264;28;20073;-80
2021/12/01 12:54:51;;;;;;;3.50;0.40;;;8.60;99.90;;;;;;4994199;28;20040;-81
2021/12/01 12:57:17;;;;;;;5.18;0.57;;;8.60;99.90;;;;;;4994062;28;20088;-81
2021/12/01 12:59:43;;;;;;;5.72;0.22;;;8.70;99.90;;;;;;4993645;28;20101;-81
2021/12/01 13:02:14;;;;;;;7.00;0.25;;;8.70;99.90;;;;;;5009970;28;20030;-81
2021/12/01 13:04:48;;;;;;;9.07;0.98;;;8.80;99.90;;;;;;4994105;28;20034;-81